Аэропорт: Симферополь. Симферополь

ICAO: URFF

METAR:
2020-02-20 08:00:00
URFF 200800Z 07007MPS 9999 BKN009 06/04 Q1017 R01/290295 NOSIG
METAR:
2020-02-20 04:52:00
TAF URFF 200452Z 2006/2106 04006G11MPS 0400 FG OVC002 SCT020CB TX07/2010Z TN02/2022Z TEMPO 2006/2007 3100 BR BKN007 SCT020CB BECMG 2007/2009 5000 BR BKN016 SCT020CB TEMPO 2018/2106 0400 -SHRA FG OVC002 BKN020CB